createdAt,value
2023-02-28T00:00:33.389Z,13.57
2023-02-28T00:03:00.538Z,8.88
2023-02-28T00:05:28.934Z,9.73
2023-02-28T00:07:56.174Z,8.00
2023-02-28T00:10:28.381Z,6.97
2023-02-28T00:12:58.223Z,8.07
2023-02-28T00:15:25.469Z,4.85
2023-02-28T00:17:52.593Z,7.55
2023-02-28T00:20:20.214Z,8.93
2023-02-28T00:22:49.448Z,8.40
2023-02-28T00:25:18.741Z,9.20
2023-02-28T00:27:46.099Z,5.80
2023-02-28T00:30:20.840Z,6.15
2023-02-28T00:32:47.696Z,5.78
2023-02-28T00:37:41.560Z,7.25
2023-02-28T00:40:09.268Z,7.65
2023-02-28T00:42:36.334Z,5.62
2023-02-28T00:45:05.791Z,4.47
2023-02-28T00:47:33.553Z,8.05
2023-02-28T00:50:01.124Z,7.50
2023-02-28T00:52:28.175Z,6.40
2023-02-28T00:54:55.551Z,7.05
2023-02-28T00:57:22.545Z,7.20
2023-02-28T00:59:49.451Z,6.50
2023-02-28T01:02:16.385Z,7.65
2023-02-28T01:04:43.336Z,7.70
2023-02-28T01:07:10.257Z,6.80
2023-02-28T01:12:04.038Z,7.15
2023-02-28T01:14:31.004Z,7.47
2023-02-28T01:16:57.886Z,6.95
2023-02-28T01:21:51.416Z,7.07
2023-02-28T01:26:44.934Z,6.97
2023-02-28T01:31:38.707Z,6.53
2023-02-28T01:34:05.580Z,6.82
2023-02-28T01:38:59.146Z,6.90
2023-02-28T01:44:16.133Z,6.30
2023-02-28T01:46:43.979Z,6.28
2023-02-28T01:49:14.823Z,7.05
2023-02-28T01:51:51.842Z,6.90
2023-02-28T01:54:31.185Z,7.47
2023-02-28T01:57:08.902Z,6.35
2023-02-28T01:59:47.169Z,6.97
2023-02-28T02:02:15.210Z,7.35
2023-02-28T02:04:51.124Z,6.62
2023-02-28T02:07:18.382Z,6.60
2023-02-28T02:09:45.257Z,6.32
2023-02-28T02:15:09.045Z,7.70
2023-02-28T02:17:42.277Z,4.60
2023-02-28T02:20:30.660Z,7.43
2023-02-28T02:23:22.015Z,7.15
2023-02-28T02:25:56.289Z,4.57
2023-02-28T02:29:04.733Z,5.68
2023-02-28T02:31:53.299Z,7.20
2023-02-28T02:34:44.628Z,7.05
2023-02-28T02:37:30.164Z,6.60
2023-02-28T02:40:02.995Z,7.65
2023-02-28T02:42:37.200Z,4.97
2023-02-28T02:45:18.697Z,6.20
2023-02-28T02:47:46.524Z,8.32
2023-02-28T02:50:19.156Z,4.47
2023-02-28T02:52:49.914Z,7.20
2023-02-28T02:55:18.550Z,7.47
2023-02-28T02:57:52.438Z,5.62
2023-02-28T03:00:21.874Z,7.00
2023-02-28T03:02:49.026Z,7.28
2023-02-28T03:05:27.232Z,6.15
2023-02-28T03:07:54.145Z,6.65
2023-02-28T03:13:04.467Z,6.70
2023-02-28T03:15:40.728Z,5.47
2023-02-28T03:18:12.975Z,7.10
2023-02-28T03:20:50.208Z,5.68
2023-02-28T03:23:35.961Z,6.95
2023-02-28T03:26:08.936Z,6.12
2023-02-28T03:28:39.033Z,6.72
2023-02-28T03:31:17.110Z,7.12
2023-02-28T03:34:07.840Z,7.45
2023-02-28T03:36:44.968Z,6.03
2023-02-28T03:39:36.951Z,7.00
2023-02-28T03:42:10.127Z,6.30
2023-02-28T03:44:44.308Z,7.30
2023-02-28T03:47:18.929Z,8.10
2023-02-28T03:49:55.798Z,6.75
2023-02-28T03:52:24.910Z,7.68
2023-02-28T03:54:54.033Z,7.78
2023-02-28T03:57:36.012Z,7.57
2023-02-28T04:00:14.656Z,7.32
2023-02-28T04:02:41.682Z,7.43
2023-02-28T04:05:09.381Z,7.80
2023-02-28T04:07:36.331Z,7.70
2023-02-28T04:10:03.842Z,8.30
2023-02-28T04:12:30.910Z,8.18
2023-02-28T04:14:57.794Z,7.57
2023-02-28T04:19:51.412Z,7.53
2023-02-28T04:24:46.090Z,6.72
2023-02-28T04:27:12.954Z,7.37
2023-02-28T04:32:06.633Z,7.35
2023-02-28T04:34:34.141Z,7.60
2023-02-28T04:37:16.997Z,7.32
2023-02-28T04:39:44.867Z,7.85
2023-02-28T04:42:12.838Z,7.45
2023-02-28T04:44:39.715Z,7.50
2023-02-28T04:49:33.573Z,7.10
2023-02-28T04:52:00.430Z,7.18
2023-02-28T04:56:54.021Z,7.25
2023-02-28T05:01:49.332Z,8.18
2023-02-28T05:04:16.534Z,14.32
2023-02-28T05:06:43.541Z,8.23
2023-02-28T05:09:12.756Z,12.82
2023-02-28T05:11:40.682Z,6.18
2023-02-28T05:14:15.456Z,15.80
2023-02-28T05:16:42.524Z,13.98
2023-02-28T05:19:09.610Z,20.05
2023-02-28T05:21:38.416Z,6.97
2023-02-28T05:24:11.876Z,5.75
2023-02-28T05:26:41.260Z,6.82
2023-02-28T05:29:08.627Z,6.00
2023-02-28T05:31:35.592Z,6.97
2023-02-28T05:34:02.485Z,7.20
2023-02-28T05:38:56.029Z,7.90
2023-02-28T05:43:50.002Z,7.18
2023-02-28T05:46:17.130Z,7.62
2023-02-28T05:48:48.171Z,7.50
2023-02-28T05:51:15.152Z,7.55
2023-02-28T05:53:41.979Z,8.30
2023-02-28T05:58:35.899Z,7.20
2023-02-28T06:01:41.903Z,8.20
2023-02-28T06:04:19.369Z,6.93
2023-02-28T06:06:52.888Z,7.25
2023-02-28T06:09:20.376Z,7.05
2023-02-28T06:11:47.399Z,7.03
2023-02-28T06:14:17.897Z,7.25
2023-02-28T06:16:44.863Z,6.25
2023-02-28T06:19:12.121Z,7.15
2023-02-28T06:21:38.997Z,6.00
2023-02-28T06:26:33.124Z,7.07
2023-02-28T06:28:59.993Z,6.68
2023-02-28T06:33:54.168Z,7.30
2023-02-28T06:38:52.555Z,6.43
2023-02-28T06:41:19.512Z,6.65
2023-02-28T06:43:46.366Z,6.40
2023-02-28T06:48:42.163Z,6.75
2023-02-28T06:51:15.296Z,7.85
2023-02-28T06:53:42.417Z,8.60
2023-02-28T06:56:11.688Z,7.43
2023-02-28T06:58:39.032Z,7.22
2023-02-28T07:01:06.334Z,7.47
2023-02-28T07:03:34.508Z,7.12
2023-02-28T07:06:02.177Z,9.88
2023-02-28T07:08:32.281Z,9.32
2023-02-28T07:10:59.500Z,8.27
2023-02-28T07:13:26.686Z,9.13
2023-02-28T07:16:01.164Z,7.78
2023-02-28T07:18:28.536Z,6.60
2023-02-28T07:20:55.490Z,5.57
2023-02-28T07:23:22.948Z,5.80
2023-02-28T07:25:51.372Z,5.00
2023-02-28T07:28:18.400Z,4.85
2023-02-28T07:30:45.328Z,5.20
2023-02-28T07:33:12.205Z,5.80
2023-02-28T07:38:06.293Z,5.30
2023-02-28T07:40:33.217Z,6.03
2023-02-28T07:43:02.833Z,5.85
2023-02-28T07:45:30.016Z,5.40
2023-02-28T07:47:57.358Z,5.43
2023-02-28T07:50:26.986Z,6.82
2023-02-28T07:52:53.974Z,6.70
2023-02-28T07:55:20.870Z,5.80
2023-02-28T07:57:47.744Z,5.75
2023-02-28T08:00:15.043Z,4.18
2023-02-28T08:02:42.115Z,5.15
2023-02-28T08:05:09.418Z,5.60
2023-02-28T08:07:36.429Z,5.57
2023-02-28T08:10:03.949Z,5.68
2023-02-28T08:12:30.813Z,4.93
2023-02-28T08:14:57.636Z,5.50
2023-02-28T08:19:51.398Z,4.53
2023-02-28T08:22:18.250Z,5.55
2023-02-28T08:27:12.117Z,5.45
2023-02-28T08:29:39.587Z,5.32
2023-02-28T08:32:14.566Z,5.25
2023-02-28T08:34:48.161Z,5.70
2023-02-28T08:37:15.132Z,5.12
2023-02-28T08:39:42.075Z,5.60
2023-02-28T08:42:08.946Z,5.80
2023-02-28T08:47:02.551Z,4.32
2023-02-28T08:49:29.836Z,5.10
2023-02-28T08:51:58.279Z,5.07
2023-02-28T08:54:25.641Z,5.82
2023-02-28T08:56:53.192Z,3.40
2023-02-28T08:59:20.073Z,5.28
2023-02-28T09:01:46.991Z,3.95
2023-02-28T09:04:17.101Z,2.62
2023-02-28T09:06:46.789Z,4.12
2023-02-28T09:09:13.692Z,4.62
2023-02-28T09:11:40.540Z,4.20
2023-02-28T09:16:35.295Z,4.87
2023-02-28T09:19:02.774Z,4.25
2023-02-28T09:21:30.101Z,4.22
2023-02-28T09:23:57.176Z,3.80
2023-02-28T09:26:26.600Z,5.05
2023-02-28T09:28:54.207Z,5.05
2023-02-28T09:31:25.935Z,3.65
2023-02-28T09:33:55.213Z,3.72
2023-02-28T09:36:24.969Z,5.25
2023-02-28T09:38:54.296Z,5.00
2023-02-28T09:41:26.644Z,3.80
2023-02-28T09:43:57.061Z,5.35
2023-02-28T09:46:33.445Z,3.92
2023-02-28T09:49:04.045Z,4.10
2023-02-28T09:51:56.437Z,5.28
2023-02-28T09:54:24.925Z,4.15
2023-02-28T09:56:57.001Z,5.30
2023-02-28T09:59:38.003Z,4.53
2023-02-28T10:02:46.337Z,5.40
2023-02-28T10:05:15.921Z,4.15
2023-02-28T10:08:11.852Z,5.50
2023-02-28T10:10:44.980Z,4.37
2023-02-28T10:13:23.279Z,4.15
2023-02-28T10:15:53.941Z,4.15
2023-02-28T10:18:27.931Z,4.35
2023-02-28T10:20:56.899Z,6.22
2023-02-28T10:23:33.872Z,5.93
2023-02-28T10:26:07.232Z,5.55
2023-02-28T10:28:34.149Z,6.20
2023-02-28T10:31:01.318Z,5.10
2023-02-28T10:33:32.150Z,4.97
2023-02-28T10:35:59.776Z,6.12
2023-02-28T10:38:38.332Z,5.32
2023-02-28T10:41:12.336Z,5.40
2023-02-28T10:43:41.048Z,5.93
2023-02-28T10:46:10.996Z,5.72
2023-02-28T10:48:51.795Z,5.68
2023-02-28T10:51:20.326Z,3.87
2023-02-28T10:54:00.671Z,4.75
2023-02-28T10:56:28.833Z,5.43
2023-02-28T10:59:03.314Z,6.43
2023-02-28T11:01:33.469Z,5.10
2023-02-28T11:04:00.602Z,5.57
2023-02-28T11:06:32.882Z,5.90
2023-02-28T11:09:02.104Z,6.43
2023-02-28T11:11:30.930Z,5.85
2023-02-28T11:14:05.261Z,5.78
2023-02-28T11:16:37.240Z,5.93
2023-02-28T11:19:05.823Z,5.72
2023-02-28T11:21:35.988Z,7.12
2023-02-28T11:24:06.476Z,5.35
2023-02-28T11:26:51.396Z,7.22
2023-02-28T11:29:30.641Z,5.97
2023-02-28T11:32:08.566Z,6.20
2023-02-28T11:34:36.926Z,3.87
2023-02-28T11:37:07.683Z,6.00
2023-02-28T11:39:34.619Z,3.92
2023-02-28T11:42:19.923Z,5.12
2023-02-28T11:44:47.301Z,6.07
2023-02-28T11:47:30.119Z,5.15
2023-02-28T11:50:05.946Z,3.97
2023-02-28T11:52:56.289Z,4.07
2023-02-28T11:56:08.937Z,5.47
2023-02-28T11:58:46.687Z,5.00
2023-02-28T12:01:36.657Z,4.05
2023-02-28T12:04:27.188Z,4.15
2023-02-28T12:07:29.201Z,5.45
2023-02-28T12:10:06.444Z,5.53
2023-02-28T12:12:39.726Z,6.80
2023-02-28T12:15:23.525Z,6.50
2023-02-28T12:18:22.691Z,6.35
2023-02-28T12:21:04.067Z,4.45
2023-02-28T12:24:12.942Z,5.82
2023-02-28T12:26:41.638Z,6.47
2023-02-28T12:29:18.300Z,6.50
2023-02-28T12:31:50.791Z,5.00
2023-02-28T12:34:24.256Z,4.55
2023-02-28T12:36:53.495Z,6.12
2023-02-28T12:39:36.579Z,5.95
2023-02-28T12:42:15.576Z,5.35
2023-02-28T12:44:47.428Z,4.72
2023-02-28T12:47:17.733Z,5.07
2023-02-28T12:49:51.597Z,5.25
2023-02-28T12:52:41.029Z,5.85
2023-02-28T12:55:15.540Z,7.28
2023-02-28T12:57:48.335Z,5.75
2023-02-28T13:00:20.686Z,7.30
2023-02-28T13:03:00.824Z,4.95
2023-02-28T13:05:43.619Z,7.47
2023-02-28T13:09:13.661Z,5.78
2023-02-28T13:11:42.263Z,8.00
2023-02-28T13:14:20.874Z,6.07
2023-02-28T13:17:16.107Z,6.68
2023-02-28T13:19:59.094Z,6.37
2023-02-28T13:22:53.854Z,5.72
2023-02-28T13:25:23.799Z,6.20
2023-02-28T13:27:57.413Z,7.47
2023-02-28T13:30:59.781Z,4.60
2023-02-28T13:33:35.116Z,5.32
2023-02-28T13:36:08.023Z,5.65
2023-02-28T13:38:39.823Z,6.05
2023-02-28T13:41:31.944Z,6.40
2023-02-28T13:44:04.720Z,6.10
2023-02-28T13:46:34.735Z,3.80
2023-02-28T13:49:26.675Z,4.72
2023-02-28T13:51:56.732Z,5.62
2023-02-28T13:54:57.112Z,5.65
2023-02-28T13:57:42.201Z,6.15
2023-02-28T14:00:33.892Z,5.12
2023-02-28T14:03:26.161Z,5.65
2023-02-28T14:06:19.535Z,6.05
2023-02-28T14:09:24.526Z,7.00
2023-02-28T14:11:54.531Z,4.70
2023-02-28T14:14:36.718Z,3.28
2023-02-28T14:17:10.777Z,4.20
2023-02-28T14:19:39.531Z,5.45
2023-02-28T14:22:45.680Z,5.37
2023-02-28T14:25:35.812Z,9.05
2023-02-28T14:28:05.748Z,4.65
2023-02-28T14:30:44.819Z,5.15
2023-02-28T14:33:48.348Z,5.93
2023-02-28T14:36:23.057Z,4.20
2023-02-28T14:38:56.380Z,4.65
2023-02-28T14:41:39.463Z,5.65
2023-02-28T14:44:21.881Z,6.85
2023-02-28T14:46:55.156Z,7.57
2023-02-28T14:49:31.334Z,6.25
2023-02-28T14:52:18.708Z,6.80
2023-02-28T14:54:46.090Z,5.30
2023-02-28T14:57:28.075Z,5.78
2023-02-28T15:00:05.290Z,4.97
2023-02-28T15:02:35.943Z,6.62
2023-02-28T15:05:21.768Z,6.68
2023-02-28T15:07:49.905Z,5.65
2023-02-28T15:10:28.333Z,13.20
2023-02-28T15:13:00.346Z,9.57
2023-02-28T15:16:01.546Z,9.15
2023-02-28T15:18:38.362Z,9.38
2023-02-28T15:21:08.677Z,8.32
2023-02-28T15:23:37.590Z,9.40
2023-02-28T15:26:05.407Z,9.52
2023-02-28T15:28:32.436Z,7.95
2023-02-28T15:31:02.528Z,8.70
2023-02-28T15:33:31.526Z,9.82
2023-02-28T15:36:30.379Z,10.00
2023-02-28T15:38:59.576Z,9.95
2023-02-28T15:41:41.282Z,8.37
2023-02-28T15:44:37.981Z,9.65
2023-02-28T15:47:18.589Z,8.07
2023-02-28T15:49:49.755Z,7.43
2023-02-28T15:52:44.172Z,8.88
2023-02-28T15:55:20.304Z,11.45
2023-02-28T15:57:49.177Z,12.27
2023-02-28T16:00:20.337Z,24.30
2023-02-28T16:02:47.305Z,17.42
2023-02-28T16:05:33.064Z,13.60
2023-02-28T16:08:02.544Z,11.95
2023-02-28T16:10:30.711Z,11.70
2023-02-28T16:12:58.240Z,12.55
2023-02-28T16:15:30.812Z,14.13
2023-02-28T16:17:58.834Z,12.20
2023-02-28T16:20:30.635Z,11.68
2023-02-28T16:22:57.767Z,13.68
2023-02-28T16:25:30.039Z,13.27
2023-02-28T16:28:01.413Z,13.40
2023-02-28T16:30:32.675Z,12.68
2023-02-28T16:33:00.074Z,13.05
2023-02-28T16:35:27.026Z,14.30
2023-02-28T16:37:54.286Z,12.90
2023-02-28T16:40:24.509Z,12.40
2023-02-28T16:42:53.839Z,12.65
2023-02-28T16:45:26.135Z,12.90
2023-02-28T16:47:53.425Z,12.98
2023-02-28T16:50:25.751Z,11.60
2023-02-28T16:52:56.052Z,13.15
2023-02-28T16:55:24.648Z,14.20
2023-02-28T16:57:54.389Z,15.13
2023-02-28T17:00:21.605Z,14.75
2023-02-28T17:02:48.626Z,19.35
2023-02-28T17:05:16.134Z,23.58
2023-02-28T17:07:43.715Z,25.17
2023-02-28T17:10:21.807Z,24.17
2023-02-28T17:12:48.721Z,24.67
2023-02-28T17:15:17.274Z,22.30
2023-02-28T17:17:44.861Z,19.42
2023-02-28T17:20:17.635Z,18.02
2023-02-28T17:22:44.657Z,17.05
2023-02-28T17:25:12.200Z,17.55
2023-02-28T17:27:39.283Z,15.82
2023-02-28T17:30:18.148Z,13.98
2023-02-28T17:32:45.092Z,14.00
2023-02-28T17:35:12.343Z,14.55
2023-02-28T17:37:39.375Z,18.45
2023-02-28T17:40:06.999Z,19.00
2023-02-28T17:42:33.834Z,19.17
2023-02-28T17:47:27.380Z,17.92
2023-02-28T17:49:54.294Z,18.30
2023-02-28T17:52:23.143Z,18.02
2023-02-28T17:54:50.076Z,18.95
2023-02-28T17:57:17.604Z,18.05
2023-02-28T17:59:45.041Z,19.17
2023-02-28T18:02:14.091Z,18.17
2023-02-28T18:04:41.236Z,14.32
2023-02-28T18:07:10.985Z,12.73
2023-02-28T18:09:37.834Z,12.90
2023-02-28T18:14:31.488Z,17.02
2023-02-28T18:16:58.418Z,17.37
2023-02-28T18:19:25.474Z,18.37
2023-02-28T18:21:53.788Z,15.85
2023-02-28T18:24:22.796Z,14.55
2023-02-28T18:26:49.766Z,14.45
2023-02-28T18:29:19.803Z,12.50
2023-02-28T18:31:48.863Z,15.30
2023-02-28T18:34:16.042Z,14.60
2023-02-28T18:36:42.927Z,15.07
2023-02-28T18:39:12.224Z,15.05
2023-02-28T18:41:39.878Z,14.20
2023-02-28T18:44:18.749Z,16.23
2023-02-28T18:46:46.758Z,13.90
2023-02-28T18:49:13.850Z,12.23
2023-02-28T18:51:45.321Z,14.05
2023-02-28T18:54:13.764Z,10.65
2023-02-28T18:56:40.746Z,10.50
2023-02-28T18:59:07.822Z,9.35
2023-02-28T19:01:34.762Z,10.80
2023-02-28T19:04:03.671Z,10.50
2023-02-28T19:06:31.672Z,11.43
2023-02-28T19:09:01.182Z,11.05
2023-02-28T19:11:28.768Z,11.52
2023-02-28T19:13:56.007Z,12.50
2023-02-28T19:16:23.216Z,14.82
2023-02-28T19:18:50.351Z,14.18
2023-02-28T19:21:19.106Z,15.13
2023-02-28T19:23:46.013Z,14.35
2023-02-28T19:26:15.897Z,12.07
2023-02-28T19:28:43.261Z,11.95
2023-02-28T19:31:30.520Z,13.13
2023-02-28T19:33:58.965Z,11.60
2023-02-28T19:36:26.139Z,11.20
2023-02-28T19:38:53.821Z,10.93
2023-02-28T19:41:21.594Z,12.25
2023-02-28T19:43:48.481Z,10.07
2023-02-28T19:46:15.429Z,10.10
2023-02-28T19:48:44.953Z,9.40
2023-02-28T19:51:13.996Z,8.95
2023-02-28T19:53:42.396Z,8.93
2023-02-28T19:56:09.957Z,9.55
2023-02-28T19:58:37.111Z,9.88
2023-02-28T20:01:11.997Z,9.43
2023-02-28T20:03:38.985Z,9.50
2023-02-28T20:06:09.869Z,8.73
2023-02-28T20:08:38.071Z,9.80
2023-02-28T20:11:10.244Z,9.30
2023-02-28T20:13:37.824Z,9.43
2023-02-28T20:16:07.148Z,9.35
2023-02-28T20:18:34.689Z,8.68
2023-02-28T20:21:02.075Z,9.25
2023-02-28T20:23:29.560Z,8.80
2023-02-28T20:26:02.327Z,8.73
2023-02-28T20:28:29.436Z,8.40
2023-02-28T20:30:56.850Z,9.98
2023-02-28T20:33:24.276Z,9.38
2023-02-28T20:35:52.972Z,9.35
2023-02-28T20:38:20.423Z,8.90
2023-02-28T20:40:47.356Z,10.18
2023-02-28T20:43:14.201Z,9.63
2023-02-28T20:48:07.814Z,8.82
2023-02-28T20:50:34.695Z,9.82
2023-02-28T20:53:01.565Z,9.40
2023-02-28T20:55:28.466Z,9.30
2023-02-28T20:57:55.380Z,8.93
2023-02-28T21:00:22.799Z,9.55
2023-02-28T21:02:49.822Z,9.75
2023-02-28T21:05:17.976Z,9.73
2023-02-28T21:07:44.833Z,9.68
2023-02-28T21:12:38.734Z,9.53
2023-02-28T21:17:32.502Z,9.40
2023-02-28T21:19:59.369Z,10.57
2023-02-28T21:22:26.277Z,10.55
2023-02-28T21:24:53.153Z,10.52
2023-02-28T21:27:20.109Z,10.10
2023-02-28T21:29:47.005Z,11.07
2023-02-28T21:32:14.923Z,10.32
2023-02-28T21:34:41.864Z,10.63
2023-02-28T21:37:08.743Z,10.90
2023-02-28T21:39:35.958Z,12.70
2023-02-28T21:42:04.281Z,12.32
2023-02-28T21:44:32.054Z,12.25
2023-02-28T21:47:02.408Z,12.18
2023-02-28T21:49:29.804Z,13.50
2023-02-28T21:51:57.237Z,12.85
2023-02-28T21:54:24.230Z,12.32
2023-02-28T21:56:51.446Z,13.35
2023-02-28T21:59:18.943Z,12.90
2023-02-28T22:01:46.227Z,12.52
2023-02-28T22:04:21.421Z,12.70
2023-02-28T22:06:53.800Z,12.37
2023-02-28T22:09:21.129Z,11.57
2023-02-28T22:11:48.270Z,11.82
2023-02-28T22:14:15.386Z,11.00
2023-02-28T22:16:57.810Z,12.00
2023-02-28T22:19:25.490Z,12.80
2023-02-28T22:21:54.060Z,12.40
2023-02-28T22:24:24.540Z,12.20
2023-02-28T22:26:53.117Z,11.52
2023-02-28T22:29:20.030Z,12.90
2023-02-28T22:34:13.785Z,12.82
2023-02-28T22:39:08.272Z,13.60
2023-02-28T22:41:35.171Z,12.73
2023-02-28T22:44:03.643Z,14.25
2023-02-28T22:46:32.572Z,14.18
2023-02-28T22:49:01.301Z,13.77
2023-02-28T22:51:29.183Z,13.38
2023-02-28T22:53:56.810Z,13.07
2023-02-28T22:56:25.033Z,12.90
2023-02-28T22:58:59.720Z,13.70
2023-02-28T23:01:29.111Z,13.68
2023-02-28T23:03:56.175Z,14.10
2023-02-28T23:06:35.026Z,13.18
2023-02-28T23:09:05.171Z,13.38
2023-02-28T23:11:39.863Z,15.25
2023-02-28T23:14:07.151Z,13.20
2023-02-28T23:17:00.035Z,12.82
2023-02-28T23:19:31.793Z,13.48
2023-02-28T23:21:59.838Z,22.40
2023-02-28T23:24:29.810Z,20.65
2023-02-28T23:26:59.720Z,15.45
2023-02-28T23:29:27.808Z,14.80
2023-02-28T23:31:55.205Z,15.13
2023-02-28T23:34:30.615Z,13.98
2023-02-28T23:36:59.833Z,13.60
2023-02-28T23:39:27.899Z,15.90
2023-02-28T23:41:55.556Z,16.23
2023-02-28T23:44:22.732Z,15.32
2023-02-28T23:46:52.268Z,14.63
2023-02-28T23:49:20.182Z,12.90
2023-02-28T23:51:49.532Z,12.50
2023-02-28T23:54:17.667Z,11.73
2023-02-28T23:56:44.916Z,11.40
2023-02-28T23:59:12.093Z,12.13
